• Join FlightAware (Why Join?)
  • Login
  • US Flag 
05:37AM EDT


 

Airport Tracker/Info


-or-


 

Live Flight TrackerFlight Track Log ✈ N45440 ✈ 26-May-2012 ✈ KEWR - MWCR / GCM

Flight Track Log - Related Links

Times and Time Zones

All times are in EDT time to prevent confusion due to time zone crossing. See the N45440 flight status page for this flight to view local times or setup timezone preferences in your user account.

Time Position Orientation Groundspeed Altitude Reporting Facility
EDT Latitude Longitude Course Direction KTS MPH feet Rate Location/Type
10:27AM 40.6043 -74.3914 79° East  Level FlightAware Approximate
10:27AM 40.6333 -74.2000 250° West 220 253 1,900  Level New York TRACON
10:29AM 40.6057 -74.3024 261° West 266 306 4,100 1,920 Climbing FlightAware ADS-B
10:29AM 40.6045 -74.3121 266° West 269 310 4,300 2,220 Climbing FlightAware ADS-B
10:29AM 40.6036 -74.3284 267° West 273 314 4,700 2,520 Climbing FlightAware ADS-B
10:29AM 40.6031 -74.3427 266° West 274 315 5,100 2,880 Climbing FlightAware ADS-B
10:29AM 40.6017 -74.3701 265° West 275 316 5,900 2,580 Climbing FlightAware ADS-B
10:30AM 40.6001 -74.3957 264° West 279 321 6,500 2,640 Climbing FlightAware ADS-B
10:30AM 40.5986 -74.4154 267° West 279 321 7,100 2,640 Climbing FlightAware ADS-B
10:30AM 40.5974 -74.4414 269° West 282 325 7,700 2,100 Climbing FlightAware ADS-B
10:30AM 40.5970 -74.4691 268° West 292 336 8,200 2,100 Climbing FlightAware ADS-B
10:30AM 40.5963 -74.4980 265° West 299 344 8,800 2,220 Climbing FlightAware ADS-B
10:31AM 40.5943 -74.5262 265° West 301 346 9,400 2,280 Climbing FlightAware ADS-B
10:31AM 40.5919 -74.5636 267° West 305 351 10,200 1,620 Climbing FlightAware ADS-B
10:32AM 40.5896 -74.6221 265° West 329 379 10,800 900 Climbing FlightAware ADS-B
10:32AM 40.5876 -74.6509 260° West 344 396 10,900 660 Climbing FlightAware ADS-B
10:32AM 40.5864 -74.6596 256° West 346 398 11,000 1,320 Climbing FlightAware ADS-B
10:32AM 40.5843 -74.6708 251° West 349 402 11,100 1,500 Climbing FlightAware ADS-B
10:32AM 40.5810 -74.6834 243° Southwest 356 410 11,300 1,560 Climbing FlightAware ADS-B
10:32AM 40.5746 -74.7000 236° Southwest 363 418 11,500 1,980 Climbing FlightAware ADS-B
10:32AM 40.5652 -74.7181 233° Southwest 366 421 11,900 2,220 Climbing FlightAware ADS-B
10:33AM 40.5340 -74.7718 233° Southwest 371 427 13,000 2,160 Climbing FlightAware ADS-B
10:33AM 40.5027 -74.8265 233° Southwest 377 434 14,100 2,220 Climbing FlightAware ADS-B
10:34AM 40.4713 -74.8819 233° Southwest 377 434 15,300 2,220 Climbing FlightAware ADS-B
10:34AM 40.4398 -74.9374 233° Southwest 380 437 16,400 2,100 Climbing FlightAware ADS-B
10:35AM 40.4241 -74.9649 229° Southwest 383 441 16,900 1,920 Climbing FlightAware ADS-B
10:35AM 40.4089 -74.9881 227° Southwest 387 445 17,300 1,500 Climbing FlightAware ADS-B
10:35AM 40.3716 -75.0406 227° Southwest 396 456 18,000 660 Climbing FlightAware ADS-B
10:36AM 40.3338 -75.0936 227° Southwest 396 456 18,000 300 Level FlightAware ADS-B
10:36AM 40.2959 -75.1465 227° Southwest 398 458 18,300 780 Climbing FlightAware ADS-B
10:37AM 40.2572 -75.2005 227° Southwest 401 461 18,800 1,080 Climbing FlightAware ADS-B
10:37AM 40.2152 -75.2590 227° Southwest 407 468 19,500 1,560 Climbing FlightAware ADS-B
10:38AM 40.1750 -75.3150 227° Southwest 407 468 20,500 1,740 Climbing FlightAware ADS-B
10:38AM 40.1356 -75.3699 227° Southwest 410 472 21,300 1,560 Climbing FlightAware ADS-B
10:39AM 40.0955 -75.4252 227° Southwest 415 478 22,100 1,440 Climbing FlightAware ADS-B
10:40AM 40.0487 -75.4897 227° Southwest 421 484 22,900 1,260 Climbing FlightAware ADS-B
10:40AM 40.0082 -75.5457 227° Southwest 428 493 23,500 1,080 Climbing FlightAware ADS-B
10:41AM 39.9665 -75.6035 227° Southwest 436 502 24,000 1,080 Climbing FlightAware ADS-B
10:41AM 39.9239 -75.6625 230° Southwest 441 507 24,600 1,140 Climbing FlightAware ADS-B
10:42AM 39.8829 -75.7267 231° Southwest 445 512 25,200 1,140 Climbing FlightAware ADS-B
10:42AM 39.8435 -75.7899 231° Southwest 449 517 25,800 1,200 Climbing FlightAware ADS-B
10:43AM 39.8031 -75.8543 231° Southwest 452 520 26,400 1,140 Climbing FlightAware ADS-B
10:43AM 39.7629 -75.9184 231° Southwest 454 522 27,000 1,020 Climbing FlightAware ADS-B
10:44AM 39.7213 -75.9846 231° Southwest 457 526 27,500 960 Climbing FlightAware ADS-B
10:44AM 39.6808 -76.0488 231° Southwest 460 529 28,000 840 Climbing FlightAware ADS-B
10:45AM 39.6306 -76.1279 231° Southwest 464 534 28,500 1,020 Climbing FlightAware ADS-B
10:45AM 39.5896 -76.1926 230° Southwest 462 532 29,200 1,320 Climbing FlightAware ADS-B
10:46AM 39.5467 -76.2594 230° Southwest 461 531 29,900 1,140 Climbing FlightAware ADS-B
10:46AM 39.5050 -76.3233 230° Southwest 460 529 30,400 960 Climbing FlightAware ADS-B
10:47AM 39.4631 -76.3873 230° Southwest 461 531 30,900 960 Climbing FlightAware ADS-B
10:47AM 39.4222 -76.4511 231° Southwest 459 528 31,400 840 Climbing FlightAware ADS-B
10:48AM 39.3800 -76.5179 231° Southwest 460 529 31,800 840 Climbing FlightAware ADS-B
10:48AM 39.3356 -76.5879 231° Southwest 462 532 32,300 780 Climbing FlightAware ADS-B
10:49AM 39.2922 -76.6560 230° Southwest 462 532 32,700 720 Climbing FlightAware ADS-B
10:49AM 39.2485 -76.7243 230° Southwest 462 532 33,100 720 Climbing FlightAware ADS-B
10:50AM 39.2041 -76.7936 230° Southwest 462 532 33,500 720 Climbing FlightAware ADS-B
10:51AM 39.1604 -76.8615 230° Southwest 462 532 33,900 420 Climbing FlightAware ADS-B
10:51AM 39.1151 -76.9321 230° Southwest 462 532 34,000 60 Climbing FlightAware ADS-B
10:52AM 39.0675 -77.0059 229° Southwest 462 532 34,000  Level FlightAware ADS-B
10:52AM 39.0609 -77.0156 225° Southwest 464 534 34,000  Level FlightAware ADS-B
10:52AM 39.0373 -77.0457 221° Southwest 466 536 34,000  Level FlightAware ADS-B
10:53AM 38.9868 -77.1015 221° Southwest 465 535 34,000  Level FlightAware ADS-B
10:53AM 38.9375 -77.1557 220° Southwest 465 535 34,000  Level FlightAware ADS-B
10:54AM 38.8873 -77.2107 220° Southwest 465 535 34,000  Level FlightAware ADS-B
10:54AM 38.8306 -77.2728 221° Southwest 465 535 34,000  Level FlightAware ADS-B
10:55AM 38.7675 -77.3419 220° Southwest 468 539 34,000  Level FlightAware ADS-B
10:55AM 38.7174 -77.3966 220° Southwest 468 539 34,000  Level FlightAware ADS-B
10:56AM 38.6665 -77.4519 220° Southwest 470 541 34,000  Level FlightAware ADS-B
10:56AM 38.6142 -77.5088 220° Southwest 470 541 34,000  Level FlightAware ADS-B
10:57AM 38.5523 -77.5761 220° Southwest 472 543 34,000  Level FlightAware ADS-B
10:58AM 38.4385 -77.6986 218° Southwest 472 543 34,000  Level FlightAware ADS-B
10:58AM 38.4044 -77.7325 221° Southwest 470 541 34,000  Level Washington Center
11:00AM 38.2656 -77.8843 220° Southwest 472 543 34,000  Level FlightAware ADS-B
11:01AM 38.1727 -77.9836 220° Southwest 472 543 34,000  Level FlightAware ADS-B
11:01AM 38.1194 -78.0406 220° Southwest 471 542 34,000  Level FlightAware ADS-B
11:02AM 38.0229 -78.1431 219° Southwest 470 541 34,000  Level FlightAware ADS-B
11:03AM 37.9208 -78.2478 216° Southwest 464 534 34,000  Level Washington Center
11:04AM 37.8036 -78.3567 217° Southwest 470 541 34,000  Level Washington Center
11:05AM 37.7011 -78.4528 217° Southwest 477 549 34,000  Level Washington Center
11:06AM 37.5944 -78.5536 217° Southwest 477 549 34,000  Level Washington Center
11:07AM 37.4897 -78.6517 217° Southwest 477 549 34,000  Level Washington Center
11:08AM 37.3958 -78.7392 216° Southwest 477 549 34,000  Level Washington Center
11:09AM 37.2889 -78.8367 217° Southwest 477 549 34,000  Level Washington Center
11:10AM 37.1817 -78.9364 216° Southwest 477 549 34,000  Level Washington Center
11:11AM 37.0747 -79.0333 217° Southwest 477 549 34,000  Level Washington Center
11:12AM 36.9694 -79.1325 216° Southwest 477 549 34,000  Level Washington Center
11:13AM 36.8536 -79.2389 217° Southwest 477 549 34,000  Level Washington Center
11:14AM 36.7483 -79.3375 216° Southwest 477 549 34,000  Level Washington Center
11:15AM 36.6411 -79.4361 216° Southwest 477 549 34,000  Level Washington Center
11:17AM 36.4900 -79.5714 216° Southwest 477 549 34,000  Level Atlanta Center
11:18AM 36.3831 -79.6675 216° Southwest 482 555 34,000  Level Atlanta Center
11:19AM 36.2858 -79.7553 216° Southwest 487 560 34,000  Level Atlanta Center
11:20AM 36.1786 -79.8511 216° Southwest 487 560 34,000  Level Atlanta Center
11:21AM 36.0714 -79.9492 205° Southwest 487 560 34,000  Level Atlanta Center
11:22AM 35.9383 -80.0250 204° Southwest 480 552 34,000  Level Atlanta Center
11:23AM 35.8175 -80.0900 201° Southwest 480 552 34,000  Level Atlanta Center
11:24AM 35.6922 -80.1497 203° Southwest 480 552 34,000  Level Atlanta Center
11:25AM 35.5689 -80.2142 203° Southwest 485 558 34,000  Level Atlanta Center
11:26AM 35.4478 -80.2758 202° Southwest 485 558 34,000  Level Atlanta Center
11:27AM 35.3347 -80.3319 202° Southwest 485 558 34,000  Level Atlanta Center
11:28AM 35.1308 -80.4333 202° Southwest 500 575 34,000  Level Jacksonville Center
11:29AM 35.0214 -80.4872 203° Southwest 488 562 34,000  Level Jacksonville Center
11:30AM 34.8975 -80.5514 201° Southwest 488 562 34,000  Level Jacksonville Center
11:31AM 34.7794 -80.6078 202° Southwest 481 554 34,000  Level Jacksonville Center
11:32AM 34.6556 -80.6689 203° Southwest 476 548 34,000  Level Jacksonville Center
11:33AM 34.5128 -80.7408 203° Southwest 503 579 34,000  Level Jacksonville Center
11:34AM 34.3825 -80.8069 201° Southwest 495 570 34,000  Level Jacksonville Center
11:35AM 34.2872 -80.8519 201° Southwest 494 568 34,000 -60 Level Jacksonville Center
11:36AM 34.1569 -80.9125 201° Southwest 477 549 33,900  Descending Jacksonville Center
11:37AM 34.0325 -80.9706 201° Southwest 477 549 34,000  Climbing Jacksonville Center
11:38AM 33.8917 -81.0361 203° Southwest 485 558 34,000  Level Jacksonville Center
11:39AM 33.7714 -81.0961 204° Southwest 491 565 34,000  Level Jacksonville Center
11:40AM 33.6597 -81.1558 202° Southwest 491 565 34,000  Level Jacksonville Center
11:41AM 33.5394 -81.2156 202° Southwest 485 558 34,000  Level Jacksonville Center
11:42AM 33.4108 -81.2778 202° Southwest 485 558 34,000  Level Jacksonville Center
11:43AM 33.2717 -81.3447 203° Southwest 493 567 34,000  Level Jacksonville Center
11:44AM 33.1472 -81.4089 202° Southwest 493 567 34,000 -60 Level Jacksonville Center
11:45AM 33.0228 -81.4681 203° Southwest 493 567 33,900  Descending Jacksonville Center
11:46AM 32.8983 -81.5294 199° South 493 567 34,000  Climbing Jacksonville Center
11:47AM 32.7653 -81.5833 177° South 493 567 34,000  Level Jacksonville Center
11:48AM 32.6461 -81.5750 173° South 482 555 34,000  Level Jacksonville Center
11:49AM 32.4997 -81.5525 173° South 479 551 34,000  Level Jacksonville Center
11:50AM 32.3639 -81.5325 173° South 485 558 34,000  Level Jacksonville Center
11:51AM 32.2322 -81.5122 173° South 485 558 34,000  Level Jacksonville Center
11:52AM 32.1150 -81.4944 173° South 485 558 34,000  Level Jacksonville Center
11:53AM 31.9811 -81.4744 173° South 485 558 34,000  Level Jacksonville Center
11:54AM 31.8306 -81.4522 174° South 490 564 34,000  Level Jacksonville Center
11:55AM 31.7008 -81.4372 174° South 476 548 34,000  Level Jacksonville Center
11:56AM 31.5692 -81.4197 173° South 476 548 34,000  Level Jacksonville Center
11:57AM 31.4500 -81.4022 173° South 486 559 34,000  Level Jacksonville Center
11:58AM 31.3203 -81.3825 174° South 486 559 34,000  Level Jacksonville Center
11:59AM 31.1864 -81.3650 173° South 486 559 34,000  Level Jacksonville Center
12:00PM 31.0547 -81.3453 173° South 486 559 34,000 -60 Level Jacksonville Center
12:01PM 30.9272 -81.3281 174° South 476 548 33,900  Descending Jacksonville Center
12:02PM 30.7953 -81.3108 167° South 476 548 34,000  Climbing Jacksonville Center
12:03PM 30.6675 -81.2769 165° South 476 548 33,900  Descending Jacksonville Center
12:04PM 30.5439 -81.2381 165° South 469 540 34,000  Climbing Jacksonville Center
12:05PM 30.4181 -81.1992 165° South 469 540 34,000  Level Jacksonville Center
12:06PM 30.2903 -81.1606 165° South 474 545 34,000  Level Jacksonville Center
12:07PM 30.1644 -81.1219 166° South 474 545 34,000  Level Jacksonville Center
12:08PM 30.0386 -81.0858 164° South 474 545 34,000  Level Jacksonville Center
12:09PM 29.9150 -81.0450 167° South 474 545 34,000  Level Jacksonville Center
12:10PM 29.7850 -81.0092 166° South 474 545 34,000  Level Jacksonville Center
12:11PM 29.6467 -80.9689 164° South 474 545 34,000  Level Jacksonville Center
12:13PM 29.4494 -80.9044 165° South 467 537 34,000  Level Miami Center
12:14PM 29.3128 -80.8636 165° South 467 537 34,000  Level Miami Center
12:15PM 29.1847 -80.8233 167° South 472 543 34,000  Level Miami Center
12:16PM 29.0564 -80.7903 170° South 472 543 34,000  Level Miami Center
12:17PM 28.9172 -80.7617 170° South 467 537 34,000  Level Miami Center
12:18PM 28.7825 -80.7333 169° South 473 544 34,000  Level Miami Center
12:19PM 28.6683 -80.7081 168° South 478 550 34,000  Level Miami Center
12:20PM 28.5419 -80.6775 169° South 478 550 34,000  Level Miami Center
12:21PM 28.4031 -80.6469 169° South 465 535 34,000 -60 Level Miami Center
12:22PM 28.2744 -80.6189 169° South 471 542 33,900 -60 Descending Miami Center
12:23PM 28.1500 -80.5914 169° South 466 536 33,900  Level Miami Center
12:24PM 28.0211 -80.5636 169° South 466 536 34,000  Climbing Miami Center
12:25PM 27.8925 -80.5358 169° South 466 536 34,000  Level Miami Center
12:26PM 27.7617 -80.5081 176° South 472 543 34,000  Level Miami Center
12:27PM 27.6325 -80.4969 191° South 472 543 34,000  Level Miami Center
12:28PM 27.5025 -80.5256 191° South 470 541 34,000  Level Miami Center
12:29PM 27.3703 -80.5542 192° South 476 548 34,000  Level Miami Center
12:30PM 27.2378 -80.5850 190° South 482 555 34,000  Level Miami Center
12:31PM 27.1056 -80.6111 191° South 487 560 34,000  Level Miami Center
12:32PM 26.9733 -80.6394 190° South 487 560 34,000  Level Miami Center
12:33PM 26.8411 -80.6653 191° South 487 560 34,000  Level Miami Center
12:34PM 26.7256 -80.6894 190° South 477 549 34,000  Level Miami Center
12:35PM 26.5828 -80.7175 191° South 477 549 34,000  Level Miami Center
12:36PM 26.4653 -80.7439 190° South 477 549 34,000  Level Miami Center
12:37PM 26.3225 -80.7714 190° South 477 549 34,000  Level Miami Center
12:38PM 26.2111 -80.7933 191° South 464 534 34,000 -60 Level Miami Center
12:39PM 26.0831 -80.8214 189° South 464 534 33,900  Descending Miami Center
12:40PM 25.9550 -80.8450 192° South 469 540 34,000  Climbing Miami Center
12:41PM 25.8311 -80.8731 190° South 469 540 34,000  Level Miami Center
12:42PM 25.7031 -80.8989 190° South 469 540 34,000  Level Miami Center
12:43PM 25.5728 -80.9244 189° South 469 540 34,000  Level Miami Center
12:44PM 25.4467 -80.9478 190° South 469 540 34,000 480 Level Miami Center
12:45PM 25.3186 -80.9733 190° South 469 540 35,000 420 Climbing Miami Center
12:46PM 25.1928 -80.9967 190° South 469 540 34,900  Descending Miami Center
12:47PM 25.0708 -81.0200 190° South 464 534 35,000  Climbing Miami Center
12:48PM 24.9492 -81.0433 189° South 459 528 35,000 -60 Level Miami Center
12:49PM 24.8253 -81.0644 190° South 453 521 34,900  Descending Miami Center
12:50PM 24.7014 -81.0875 191° South 453 521 35,000  Climbing Miami Center
12:51PM 24.5775 -81.1131 190° South 453 521 35,000  Level Miami Center
12:52PM 24.4578 -81.1364 190° South 453 521 35,000  Level Miami Center
12:53PM 24.3358 -81.1594 188° South 453 521 35,000  Level Miami Center
12:54PM 24.2100 -81.1781 189° South 453 521 35,000  Level Miami Center
12:55PM 24.0925 -81.1989 186° South 448 516 35,000 -60 Level Miami Center
12:56PM 23.9731 -81.2131 182° South 448 516 34,900 -120 Descending Miami Center
01:04PM 22.9770 -81.2465 182° South  Level FlightAware Approximate
01:05PM 22.8512 -81.2507 182° South  Level FlightAware Approximate
01:06PM 22.7253 -81.2549 182° South  Level FlightAware Approximate
01:07PM 22.5995 -81.2591 182° South  Level FlightAware Approximate
01:08PM 22.4737 -81.2633 182° South  Level FlightAware Approximate
01:09PM 22.3479 -81.2674 182° South  Level FlightAware Approximate
01:10PM 22.2221 -81.2716 182° South  Level FlightAware Approximate
01:11PM 22.0962 -81.2757 182° South  Level FlightAware Approximate
01:12PM 21.9704 -81.2799 182° South  Level FlightAware Approximate
01:13PM 21.8446 -81.2840 182° South  Level FlightAware Approximate
01:14PM 21.7188 -81.2881 182° South  Level FlightAware Approximate
01:15PM 21.5930 -81.2923 178° South  Level FlightAware Approximate
01:16PM 21.4680 -81.2872 182° South  Level FlightAware Approximate
01:17PM 21.3421 -81.2919 182° South  Level FlightAware Approximate
01:18PM 21.2163 -81.2965 184° South  Level FlightAware Approximate
01:19PM 21.0910 -81.3059 185° South  Level FlightAware Approximate
01:20PM 20.9656 -81.3167 182° South  Level FlightAware Approximate
01:21PM 20.8398 -81.3204 182° South  Level FlightAware Approximate
01:22PM 20.7140 -81.3242 182° South  Level FlightAware Approximate
01:23PM 20.5881 -81.3280 177° South  Level FlightAware Approximate
01:24PM 20.4648 -81.3201 182° South  Level FlightAware Approximate
01:25PM 20.3390 -81.3251 182° South  Level FlightAware Approximate
01:26PM 20.2132 -81.3300 182° South  Level FlightAware Approximate
01:27PM 20.0874 -81.3350 182° South  Level FlightAware Approximate
01:28PM 19.9620 -81.3397 184° South  Level FlightAware Approximate
01:29PM 19.8369 -81.3500 182° South  Level FlightAware Approximate
01:30PM 19.7111 -81.3538 178° South  Level FlightAware Approximate
01:31PM 19.5854 -81.3500 180° South  Level FlightAware Approximate
01:32PM 19.4596 -81.3500 187° South  Level FlightAware Approximate
01:33PM 19.3399 -81.3667 168° South  Level FlightAware Approximate
01:34PM 19.2667 -81.3500 344° North  Level FlightAware Approximate
01:35PM 19.3879 -81.3860 165° South  Level Estimated
01:36PM 19.2690 -81.3523 348° North  Level FlightAware Approximate
01:37PM 19.3920 -81.3805 167° South  Level Estimated
01:38PM 19.2667 -81.3500 344° North  Level FlightAware Approximate
01:39PM 19.3879 -81.3860 164° South  Level Estimated
01:40PM 19.2667 -81.3500 344° North  Level FlightAware Approximate
01:41PM 19.3879 -81.3860 164° South  Level Estimated
01:42PM 19.2667 -81.3500 164° South  Level FlightAware Approximate